Time;durP1;ratioP1;P1;durP2;ratioP2;P2;SDS_P1;SDS_P2;PMS_P1;PMS_P2;Temp;Humidity;BMP_temperature;BMP_pressure;BME280_temperature;BME280_humidity;BME280_pressure;Samples;Min_cycle;Max_cycle;Signal;HPM_P1;HPM_P2
2021/12/16 00:07:21;;;;;;;14.35;6.78;;;24.70;99.90;;;;;;5058612;28;20272;-76
2021/12/16 00:10:03;;;;;;;10.30;6.20;;;24.60;99.90;;;;;;5083089;28;20188;-76
2021/12/16 00:32:37;;;;;;;9.40;4.85;;;25.50;99.90;;;;;;5085851;28;20317;-76
2021/12/16 00:35:09;;;;;;;10.43;5.03;;;25.80;99.90;;;;;;5093776;28;20782;-76
2021/12/16 00:37:40;;;;;;;11.98;5.60;;;25.60;99.90;;;;;;5086017;28;20203;-77
2021/12/16 00:40:13;;;;;;;12.90;6.90;;;25.40;99.90;;;;;;5085899;28;20213;-76
2021/12/16 00:42:52;;;;;;;15.25;7.05;;;25.30;99.90;;;;;;5078777;28;20210;-76
2021/12/16 00:45:37;;;;;;;13.18;6.80;;;24.80;99.90;;;;;;5084556;28;20198;-76
2021/12/16 00:48:22;;;;;;;10.95;6.00;;;24.70;99.90;;;;;;5082104;28;20189;-76
2021/12/16 00:56:38;;;;;;;13.70;6.47;;;25.50;99.90;;;;;;5085629;28;20570;-76
2021/12/16 00:59:13;;;;;;;14.43;5.90;;;25.60;99.90;;;;;;5075323;28;20246;-76
2021/12/16 01:01:52;;;;;;;13.88;6.65;;;25.50;99.90;;;;;;5092505;28;20252;-76
2021/12/16 01:36:07;;;;;;;16.17;5.53;;;25.00;99.90;;;;;;5089446;28;20214;-76
2021/12/16 01:47:23;;;;;;;17.45;4.95;;;25.00;99.90;;;;;;5092541;28;20206;-75
2021/12/16 01:50:02;;;;;;;14.27;4.55;;;25.20;99.90;;;;;;5089843;28;20192;-76
2021/12/16 01:53:05;;;;;;;18.75;4.93;;;25.10;99.90;;;;;;5085726;28;20187;-77
2021/12/16 01:55:42;;;;;;;13.30;4.10;;;25.00;99.90;;;;;;5089155;28;20267;-78
2021/12/16 01:58:17;;;;;;;12.23;3.72;;;24.60;99.90;;;;;;5085295;28;20620;-76
2021/12/16 02:00:59;;;;;;;9.73;3.75;;;24.40;99.90;;;;;;5083909;28;20649;-76
2021/12/16 02:03:42;;;;;;;12.10;3.90;;;24.30;99.90;;;;;;5077885;28;20185;-77
2021/12/16 02:06:42;;;;;;;13.73;4.25;;;24.10;99.90;;;;;;5081291;28;20184;-77
2021/12/16 02:09:22;;;;;;;10.93;3.67;;;24.30;99.90;;;;;;5080941;28;20197;-76
2021/12/16 02:11:59;;;;;;;13.38;4.07;;;24.50;99.90;;;;;;5074189;28;20211;-75
2021/12/16 02:28:38;;;;;;;10.18;3.65;;;24.60;99.90;;;;;;5084091;28;20183;-77
2021/12/16 02:31:27;;;;;;;10.93;3.90;;;24.70;99.90;;;;;;5081598;28;20197;-76
2021/12/16 02:36:50;;;;;;;12.63;3.92;;;24.60;99.90;;;;;;5083108;28;20196;-75
2021/12/16 02:39:26;;;;;;;11.30;3.85;;;24.70;99.90;;;;;;5081218;28;20200;-75
2021/12/16 02:41:59;;;;;;;12.05;3.80;;;24.90;99.90;;;;;;5080756;28;20188;-78
2021/12/16 02:44:37;;;;;;;11.32;3.47;;;25.00;99.90;;;;;;5088275;28;20180;-75
2021/12/16 02:49:58;;;;;;;11.18;3.50;;;24.90;99.90;;;;;;5086431;28;20261;-76
2021/12/16 02:52:30;;;;;;;15.38;3.38;;;24.80;99.90;;;;;;5080041;28;20656;-77
2021/12/16 02:55:03;;;;;;;10.90;3.45;;;24.60;99.90;;;;;;5087041;28;20234;-76
2021/12/16 02:57:41;;;;;;;12.40;3.65;;;24.40;99.90;;;;;;5088129;28;20190;-77
2021/12/16 03:00:15;;;;;;;11.50;3.80;;;24.30;99.90;;;;;;5091760;28;20707;-76
2021/12/16 03:02:48;;;;;;;11.43;3.50;;;24.20;99.90;;;;;;5088075;28;20191;-78
2021/12/16 03:05:21;;;;;;;12.10;4.00;;;24.30;99.90;;;;;;5090898;28;20611;-77
2021/12/16 03:07:52;;;;;;;12.77;3.67;;;24.30;99.90;;;;;;5087506;28;20223;-77
2021/12/16 03:13:23;;;;;;;16.58;3.90;;;24.00;99.90;;;;;;5084217;28;20624;-77
2021/12/16 03:16:08;;;;;;;17.08;3.85;;;23.70;99.90;;;;;;5083171;28;20202;-77
2021/12/16 03:18:50;;;;;;;12.43;3.35;;;23.40;99.90;;;;;;5087480;28;20188;-76
2021/12/16 03:21:27;;;;;;;13.52;3.40;;;23.10;99.90;;;;;;5087140;28;20223;-77
2021/12/16 03:30:13;;;;;;;10.75;2.72;;;23.50;99.90;;;;;;5050783;28;20193;-77
2021/12/16 03:33:15;;;;;;;11.20;3.05;;;23.80;99.90;;;;;;5080053;28;20185;-77
2021/12/16 03:36:05;;;;;;;12.15;3.50;;;23.90;99.90;;;;;;5081802;28;20208;-76
2021/12/16 03:38:39;;;;;;;17.83;3.40;;;24.10;99.90;;;;;;5089707;28;20193;-77
2021/12/16 03:41:10;;;;;;;11.35;2.88;;;24.10;99.90;;;;;;5084890;28;20208;-77
2021/12/16 03:43:43;;;;;;;10.77;3.15;;;24.00;99.90;;;;;;5083145;28;20185;-76
2021/12/16 03:46:29;;;;;;;17.13;3.38;;;23.80;99.90;;;;;;5090006;28;20203;-78
2021/12/16 03:49:08;;;;;;;13.13;3.30;;;23.80;99.90;;;;;;5092108;28;20208;-77
2021/12/16 03:51:41;;;;;;;11.20;3.17;;;23.70;99.90;;;;;;5083497;28;20275;-77
2021/12/16 03:54:15;;;;;;;12.65;3.10;;;23.40;99.90;;;;;;5083653;28;20196;-76
2021/12/16 03:56:47;;;;;;;12.27;2.70;;;23.30;99.90;;;;;;5077619;28;20193;-77
2021/12/16 03:59:22;;;;;;;15.40;3.20;;;23.30;99.90;;;;;;5090487;28;20200;-77
2021/12/16 04:01:53;;;;;;;13.65;2.95;;;23.30;99.90;;;;;;5087576;28;20215;-77
2021/12/16 04:04:24;;;;;;;11.63;3.08;;;23.30;99.90;;;;;;5076370;28;20181;-77
2021/12/16 04:06:58;;;;;;;12.77;3.10;;;23.40;99.90;;;;;;5090556;28;20184;-77
2021/12/16 04:09:31;;;;;;;17.42;3.33;;;23.20;99.90;;;;;;5087022;28;20184;-76
2021/12/16 04:12:09;;;;;;;14.65;2.80;;;23.00;99.90;;;;;;5094350;28;20590;-77
2021/12/16 04:14:43;;;;;;;13.77;3.13;;;23.10;99.90;;;;;;5091404;28;20310;-78
2021/12/16 04:17:16;;;;;;;13.00;2.65;;;22.90;99.90;;;;;;5089425;28;20180;-77
2021/12/16 04:19:47;;;;;;;14.50;2.63;;;22.60;99.90;;;;;;5084574;28;20188;-77
2021/12/16 04:22:27;;;;;;;12.18;2.70;;;22.50;99.90;;;;;;5080579;28;20200;-77
2021/12/16 04:25:00;;;;;;;12.45;2.35;;;22.30;99.90;;;;;;5088089;28;20533;-77
2021/12/16 04:27:33;;;;;;;13.07;2.58;;;22.10;99.90;;;;;;5088356;28;20197;-76
2021/12/16 04:30:14;;;;;;;13.13;2.60;;;22.00;99.90;;;;;;5086970;28;20191;-76
2021/12/16 04:32:45;;;;;;;11.90;2.58;;;21.90;99.90;;;;;;5081760;28;20644;-77
2021/12/16 04:35:16;;;;;;;15.93;2.90;;;21.80;99.90;;;;;;5089092;28;20599;-77
2021/12/16 04:37:48;;;;;;;17.50;2.80;;;21.80;99.90;;;;;;5081983;28;20191;-77
2021/12/16 04:40:21;;;;;;;12.40;2.40;;;21.70;99.90;;;;;;5089565;28;20212;-77
2021/12/16 04:42:58;;;;;;;14.00;2.25;;;21.70;99.90;;;;;;5088436;28;20646;-77
2021/12/16 04:45:32;;;;;;;13.38;2.88;;;21.70;99.90;;;;;;5093158;28;20656;-77
2021/12/16 04:48:03;;;;;;;20.45;2.60;;;21.60;99.90;;;;;;5079747;28;20193;-77
2021/12/16 04:50:33;;;;;;;10.93;2.35;;;21.60;99.90;;;;;;5073852;28;20246;-76
2021/12/16 04:53:04;;;;;;;12.75;2.80;;;21.60;99.90;;;;;;5087295;28;20201;-77
2021/12/16 04:55:35;;;;;;;11.27;2.40;;;21.60;99.90;;;;;;5082040;28;20192;-77
2021/12/16 04:58:06;;;;;;;15.45;3.08;;;21.60;99.90;;;;;;5081883;28;20189;-77
2021/12/16 05:00:39;;;;;;;16.00;2.42;;;21.60;99.90;;;;;;5090903;28;20208;-77
2021/12/16 05:03:10;;;;;;;15.07;2.95;;;21.70;99.90;;;;;;5080159;28;20563;-77
2021/12/16 05:05:41;;;;;;;12.23;2.40;;;21.70;99.90;;;;;;5081608;28;20188;-76
2021/12/16 05:08:13;;;;;;;14.73;2.50;;;21.70;99.90;;;;;;5087634;28;20277;-77
2021/12/16 05:10:44;;;;;;;16.45;2.50;;;21.70;99.90;;;;;;5084837;28;20188;-76
2021/12/16 05:13:15;;;;;;;8.55;2.55;;;21.60;99.90;;;;;;5087197;28;20647;-76
2021/12/16 05:15:57;;;;;;;10.77;2.63;;;21.60;99.90;;;;;;5079840;28;20200;-77
2021/12/16 05:18:33;;;;;;;11.77;2.60;;;21.70;99.90;;;;;;5076727;28;20185;-76
2021/12/16 05:21:07;;;;;;;16.55;2.63;;;21.60;99.90;;;;;;5080367;28;20211;-77
2021/12/16 05:26:31;;;;;;;11.95;2.70;;;21.70;99.90;;;;;;5065810;28;20659;-76
2021/12/16 05:29:05;;;;;;;10.57;2.20;;;21.70;99.90;;;;;;5085283;28;20184;-76
2021/12/16 05:31:38;;;;;;;11.48;2.45;;;21.80;99.90;;;;;;5078347;28;20196;-76
2021/12/16 05:34:10;;;;;;;10.98;2.00;;;21.80;99.90;;;;;;5082789;28;20231;-75
2021/12/16 05:36:41;;;;;;;15.02;2.42;;;21.70;99.90;;;;;;5083264;28;20192;-76
2021/12/16 05:39:15;;;;;;;17.92;2.42;;;21.60;99.90;;;;;;5081722;28;20185;-76
2021/12/16 05:41:46;;;;;;;9.52;2.40;;;21.50;99.90;;;;;;5080872;28;20212;-75
2021/12/16 05:44:18;;;;;;;12.60;2.65;;;21.50;99.90;;;;;;5084762;28;20203;-75
2021/12/16 05:46:51;;;;;;;14.55;2.75;;;21.50;99.90;;;;;;5091813;28;20180;-76
2021/12/16 05:49:22;;;;;;;15.80;2.55;;;21.60;99.90;;;;;;5086754;28;20180;-76
2021/12/16 05:51:53;;;;;;;12.40;2.47;;;21.60;99.90;;;;;;5084662;28;20231;-76
2021/12/16 05:54:24;;;;;;;10.15;2.35;;;21.60;99.90;;;;;;5093088;28;20640;-76
2021/12/16 05:56:55;;;;;;;10.23;2.00;;;21.60;99.90;;;;;;5083031;28;20208;-75
2021/12/16 05:59:26;;;;;;;10.55;2.10;;;21.60;99.90;;;;;;5078338;28;20188;-75
2021/12/16 06:01:59;;;;;;;10.27;2.33;;;21.50;99.90;;;;;;5066047;28;20224;-75
2021/12/16 06:04:29;;;;;;;11.93;2.28;;;21.50;99.90;;;;;;5081608;28;20193;-75
2021/12/16 06:07:00;;;;;;;10.85;2.40;;;21.50;99.90;;;;;;5080867;28;20189;-75
2021/12/16 06:09:31;;;;;;;11.68;2.42;;;21.40;99.90;;;;;;5078424;28;20192;-75
2021/12/16 06:12:02;;;;;;;9.98;2.28;;;21.40;99.90;;;;;;5082245;28;20184;-76
2021/12/16 06:14:48;;;;;;;14.00;2.42;;;21.40;99.90;;;;;;5078857;28;20688;-74
2021/12/16 06:28:41;;;;;;;13.38;2.70;;;21.20;99.90;;;;;;5075007;28;20196;-76
2021/12/16 06:31:11;;;;;;;11.95;2.95;;;21.10;99.90;;;;;;5086443;28;20587;-75
2021/12/16 06:33:44;;;;;;;7.45;2.40;;;21.10;99.90;;;;;;5088621;28;20592;-75
2021/12/16 06:36:15;;;;;;;11.80;2.50;;;21.10;99.90;;;;;;5085648;28;20188;-75
2021/12/16 06:38:45;;;;;;;7.20;2.42;;;21.10;99.90;;;;;;5081914;28;20238;-76
2021/12/16 06:41:17;;;;;;;13.63;2.72;;;21.10;99.90;;;;;;5080822;28;20221;-76
2021/12/16 06:43:50;;;;;;;12.30;2.70;;;21.00;99.90;;;;;;5076392;28;20185;-76
2021/12/16 06:46:29;;;;;;;8.05;2.50;;;21.00;99.90;;;;;;5084578;28;20665;-76
2021/12/16 06:49:03;;;;;;;11.07;2.38;;;21.00;99.90;;;;;;5084256;28;20196;-76
2021/12/16 06:51:44;;;;;;;8.68;2.30;;;21.10;99.90;;;;;;5080762;28;20188;-75
2021/12/16 06:54:21;;;;;;;8.32;2.15;;;21.00;99.90;;;;;;5088023;28;20284;-76
2021/12/16 06:57:01;;;;;;;8.52;2.53;;;20.90;99.90;;;;;;5088847;28;20192;-76
2021/12/16 06:59:34;;;;;;;7.95;2.25;;;20.90;99.90;;;;;;5084204;28;20231;-76
2021/12/16 07:02:13;;;;;;;7.25;2.15;;;20.90;99.90;;;;;;5092736;28;20212;-76
2021/12/16 07:04:46;;;;;;;11.65;2.78;;;20.90;99.90;;;;;;5088118;28;20556;-76
2021/12/16 07:07:17;;;;;;;8.13;2.17;;;20.90;99.90;;;;;;5088706;28;20192;-76
2021/12/16 07:09:48;;;;;;;11.43;2.33;;;20.80;99.90;;;;;;5087700;28;20185;-76
2021/12/16 07:12:24;;;;;;;8.50;2.30;;;20.80;99.90;;;;;;5086807;28;20192;-77
2021/12/16 07:14:55;;;;;;;8.43;2.22;;;20.80;99.90;;;;;;5088006;28;20211;-77
2021/12/16 07:17:26;;;;;;;9.18;2.17;;;20.80;99.90;;;;;;5087513;28;20200;-76
2021/12/16 07:19:58;;;;;;;10.55;2.30;;;20.80;99.90;;;;;;5081025;28;20200;-75
2021/12/16 07:22:29;;;;;;;8.75;2.58;;;20.80;99.90;;;;;;5094382;28;20220;-75
2021/12/16 07:25:00;;;;;;;10.75;2.38;;;20.80;99.90;;;;;;5095495;28;20193;-75
2021/12/16 07:27:31;;;;;;;7.53;2.22;;;20.80;99.90;;;;;;5092584;28;20188;-75
2021/12/16 07:30:02;;;;;;;13.57;2.60;;;20.80;99.90;;;;;;5076195;28;20690;-75
2021/12/16 07:32:32;;;;;;;12.52;2.50;;;20.80;99.90;;;;;;5075731;28;20192;-75
2021/12/16 07:35:05;;;;;;;7.55;2.67;;;20.80;99.90;;;;;;5090150;28;20231;-76
2021/12/16 07:37:39;;;;;;;9.25;2.35;;;20.80;99.90;;;;;;5094442;28;20184;-76
2021/12/16 07:40:12;;;;;;;11.05;2.70;;;20.80;99.90;;;;;;5087955;28;20195;-76
2021/12/16 07:42:58;;;;;;;9.40;2.20;;;20.80;99.90;;;;;;5077557;28;20620;-76
2021/12/16 07:45:34;;;;;;;7.25;2.20;;;20.90;99.90;;;;;;5091572;28;20699;-76
2021/12/16 07:48:05;;;;;;;9.48;2.10;;;20.80;99.90;;;;;;5085663;28;20279;-77
2021/12/16 07:50:39;;;;;;;8.23;2.08;;;20.90;99.90;;;;;;5084578;28;20191;-76
2021/12/16 07:53:10;;;;;;;8.20;1.95;;;20.90;99.90;;;;;;5081856;28;20199;-76
2021/12/16 07:55:42;;;;;;;9.73;2.47;;;20.80;99.90;;;;;;5084194;28;20193;-76
2021/12/16 07:58:14;;;;;;;7.85;2.20;;;20.80;99.90;;;;;;5082537;28;20241;-76
2021/12/16 08:00:45;;;;;;;10.13;2.35;;;20.80;99.90;;;;;;5089532;28;20196;-76
2021/12/16 08:03:17;;;;;;;9.85;2.22;;;20.80;99.90;;;;;;5088681;28;20288;-76
2021/12/16 08:05:54;;;;;;;12.20;2.55;;;20.80;99.90;;;;;;5076502;28;20188;-75
2021/12/16 08:08:26;;;;;;;12.25;2.30;;;20.80;99.90;;;;;;5091863;28;20195;-76
2021/12/16 08:10:58;;;;;;;10.07;2.40;;;20.80;99.90;;;;;;5085403;28;20188;-76
2021/12/16 08:13:28;;;;;;;8.07;2.05;;;20.80;99.90;;;;;;5084737;28;20228;-76
2021/12/16 08:16:01;;;;;;;7.53;2.30;;;20.80;99.90;;;;;;5089328;28;20648;-76
2021/12/16 08:18:32;;;;;;;10.10;2.28;;;20.80;99.90;;;;;;5083512;28;20243;-76
2021/12/16 08:21:05;;;;;;;6.38;2.20;;;20.80;99.90;;;;;;5093869;28;20193;-76
2021/12/16 08:23:37;;;;;;;9.88;2.40;;;20.80;99.90;;;;;;5086057;28;20196;-75
2021/12/16 08:26:07;;;;;;;5.05;2.00;;;20.80;99.90;;;;;;5088643;28;20196;-75
2021/12/16 08:28:38;;;;;;;9.02;2.30;;;20.80;99.90;;;;;;5090868;28;20584;-76
2021/12/16 08:31:10;;;;;;;8.27;2.28;;;20.80;99.90;;;;;;5081880;28;20277;-75
2021/12/16 08:33:41;;;;;;;8.27;2.55;;;20.80;99.90;;;;;;5084106;28;20246;-76
2021/12/16 08:36:13;;;;;;;7.95;2.20;;;20.80;99.90;;;;;;5087526;28;20287;-75
2021/12/16 08:38:45;;;;;;;13.10;2.72;;;20.80;99.90;;;;;;5082771;28;20192;-75
2021/12/16 08:41:18;;;;;;;12.13;2.67;;;20.80;99.90;;;;;;5084061;28;20591;-75
2021/12/16 08:43:49;;;;;;;8.30;2.70;;;20.80;99.90;;;;;;5092366;28;20191;-76
2021/12/16 08:46:25;;;;;;;7.55;2.97;;;20.80;99.90;;;;;;5084896;28;20189;-76
2021/12/16 08:48:59;;;;;;;9.05;2.38;;;20.80;99.90;;;;;;5085002;28;20190;-76
2021/12/16 08:51:35;;;;;;;8.32;2.17;;;20.80;99.90;;;;;;5084423;28;20328;-75
2021/12/16 08:54:06;;;;;;;7.20;2.65;;;20.80;99.90;;;;;;5081546;28;20192;-76
2021/12/16 08:56:37;;;;;;;6.57;2.33;;;20.80;99.90;;;;;;5077715;28;20195;-76
2021/12/16 08:59:09;;;;;;;9.82;2.78;;;20.80;99.90;;;;;;5078354;28;20215;-76
2021/12/16 09:01:43;;;;;;;13.00;2.75;;;20.80;99.90;;;;;;5084688;28;20231;-76
2021/12/16 09:04:19;;;;;;;10.18;2.60;;;20.80;99.90;;;;;;5078446;28;20191;-76
2021/12/16 09:06:52;;;;;;;8.05;2.60;;;20.80;99.90;;;;;;5081778;28;20189;-76
2021/12/16 09:09:32;;;;;;;4.85;2.28;;;20.80;99.90;;;;;;5083575;28;20192;-76
2021/12/16 09:12:11;;;;;;;7.00;2.17;;;20.80;99.90;;;;;;5086230;28;20192;-76
2021/12/16 09:14:45;;;;;;;6.78;2.30;;;20.80;99.90;;;;;;5080966;28;20227;-76
2021/12/16 09:17:20;;;;;;;8.55;2.40;;;20.80;99.90;;;;;;5083725;28;20282;-76
2021/12/16 09:19:53;;;;;;;8.82;2.63;;;20.80;99.90;;;;;;5082714;28;20524;-75
2021/12/16 09:22:30;;;;;;;6.43;2.47;;;20.80;99.90;;;;;;5083054;28;20201;-76
2021/12/16 09:25:08;;;;;;;8.10;2.30;;;20.80;99.90;;;;;;5084716;28;20246;-76
2021/12/16 09:27:40;;;;;;;8.23;2.30;;;20.80;99.90;;;;;;5089605;28;20527;-76
2021/12/16 09:30:13;;;;;;;9.77;2.40;;;20.70;99.90;;;;;;5072014;28;20188;-76
2021/12/16 09:32:45;;;;;;;6.85;1.92;;;20.60;99.90;;;;;;5079381;28;20196;-76
2021/12/16 09:35:18;;;;;;;7.75;2.10;;;20.50;99.90;;;;;;5089045;28;20314;-75
2021/12/16 09:37:51;;;;;;;6.97;2.28;;;20.50;99.90;;;;;;5086006;28;20185;-75
2021/12/16 09:40:25;;;;;;;8.75;2.30;;;20.50;99.90;;;;;;5086090;28;20188;-76
2021/12/16 09:42:57;;;;;;;7.10;2.03;;;20.40;99.90;;;;;;5085663;28;20220;-76
2021/12/16 09:45:28;;;;;;;7.85;2.30;;;20.40;99.90;;;;;;5083128;28;20180;-76
2021/12/16 09:48:00;;;;;;;9.20;2.67;;;20.30;99.90;;;;;;5081370;28;20211;-75
2021/12/16 09:50:34;;;;;;;10.68;2.15;;;20.30;99.90;;;;;;5084715;28;20545;-76
2021/12/16 09:53:07;;;;;;;6.63;1.90;;;20.30;99.90;;;;;;5080393;28;20632;-76
2021/12/16 09:55:39;;;;;;;9.15;2.42;;;20.30;99.90;;;;;;5075140;28;20238;-76
2021/12/16 09:58:10;;;;;;;6.00;2.05;;;20.30;99.90;;;;;;5086982;28;20197;-76
2021/12/16 10:00:42;;;;;;;6.07;1.80;;;20.30;99.90;;;;;;5079769;28;20192;-76
2021/12/16 10:03:15;;;;;;;7.20;2.25;;;20.30;99.90;;;;;;5085118;28;20216;-76
2021/12/16 10:05:46;;;;;;;9.52;2.00;;;20.30;99.90;;;;;;5091289;28;20317;-75
2021/12/16 10:08:19;;;;;;;9.07;2.20;;;20.30;99.90;;;;;;5081084;28;20194;-76
2021/12/16 10:10:50;;;;;;;8.20;2.53;;;20.30;99.90;;;;;;5084175;28;20235;-76
2021/12/16 10:13:30;;;;;;;7.95;2.30;;;20.40;99.90;;;;;;5072752;28;20216;-76
2021/12/16 10:18:50;;;;;;;6.97;2.17;;;20.40;99.90;;;;;;5081111;28;20659;-75
2021/12/16 10:21:24;;;;;;;8.95;2.15;;;20.40;99.90;;;;;;5091783;28;20195;-76
2021/12/16 10:23:57;;;;;;;7.18;1.80;;;20.30;99.90;;;;;;5083911;28;20308;-76
2021/12/16 10:26:29;;;;;;;6.63;1.70;;;20.40;99.90;;;;;;5084364;28;20261;-76
2021/12/16 10:29:02;;;;;;;7.93;1.90;;;20.40;99.90;;;;;;5083415;28;20188;-76
2021/12/16 10:31:37;;;;;;;9.13;2.00;;;20.40;99.90;;;;;;5084021;28;20184;-76
2021/12/16 10:34:10;;;;;;;7.07;1.73;;;20.40;99.90;;;;;;5084146;28;20231;-76
2021/12/16 10:36:42;;;;;;;7.15;2.05;;;20.30;99.90;;;;;;5086498;28;20205;-76
2021/12/16 10:39:17;;;;;;;8.85;2.20;;;20.30;99.90;;;;;;5082294;28;20637;-76
2021/12/16 10:41:49;;;;;;;5.97;1.87;;;20.30;99.90;;;;;;5092052;28;20183;-75
2021/12/16 10:44:22;;;;;;;7.45;1.80;;;20.30;99.90;;;;;;5083932;28;20337;-75
2021/12/16 10:47:00;;;;;;;7.13;1.98;;;20.30;99.90;;;;;;5082831;28;20195;-75
2021/12/16 10:49:32;;;;;;;7.53;1.80;;;20.30;99.90;;;;;;5073779;28;20562;-76
2021/12/16 10:52:06;;;;;;;6.57;1.88;;;20.30;99.90;;;;;;5088527;28;20185;-75
2021/12/16 10:54:41;;;;;;;9.52;2.00;;;20.30;99.90;;;;;;5080641;28;20250;-75
2021/12/16 10:57:14;;;;;;;9.73;2.28;;;20.30;99.90;;;;;;5076127;28;20632;-75
2021/12/16 10:59:46;;;;;;;9.15;1.77;;;20.30;99.90;;;;;;5076163;28;20191;-76
2021/12/16 11:02:19;;;;;;;5.25;1.98;;;20.30;99.90;;;;;;5089759;28;20257;-75
2021/12/16 11:04:52;;;;;;;8.30;2.10;;;20.30;99.90;;;;;;5086244;28;20188;-75
2021/12/16 11:07:27;;;;;;;6.60;1.90;;;20.30;99.90;;;;;;5082276;28;20552;-75
2021/12/16 11:10:08;;;;;;;5.75;1.70;;;20.30;99.90;;;;;;5091813;28;20547;-75
2021/12/16 11:12:48;;;;;;;6.57;1.90;;;20.20;99.90;;;;;;5083821;28;20219;-75
2021/12/16 11:15:28;;;;;;;5.28;1.85;;;20.30;99.90;;;;;;5086642;28;20291;-76
2021/12/16 11:18:02;;;;;;;4.32;1.80;;;20.30;99.90;;;;;;5083867;28;20189;-76
2021/12/16 11:20:38;;;;;;;7.15;1.80;;;20.30;99.90;;;;;;5094619;28;20203;-75
2021/12/16 11:23:11;;;;;;;8.68;1.80;;;20.30;99.90;;;;;;5095538;28;20215;-75
2021/12/16 11:25:45;;;;;;;9.95;2.00;;;20.30;99.90;;;;;;5086326;28;20640;-75
2021/12/16 11:28:20;;;;;;;7.32;1.90;;;20.30;99.90;;;;;;5086839;28;20187;-76
2021/12/16 11:30:56;;;;;;;4.05;1.50;;;20.30;99.90;;;;;;5090052;28;20181;-75
2021/12/16 11:33:34;;;;;;;6.07;1.70;;;20.30;99.90;;;;;;5085749;28;20200;-75
2021/12/16 11:36:09;;;;;;;4.57;1.63;;;20.30;99.90;;;;;;5093428;28;20235;-75
2021/12/16 11:38:42;;;;;;;6.70;1.70;;;20.40;99.90;;;;;;5094610;28;20549;-75
2021/12/16 11:41:25;;;;;;;6.82;1.80;;;20.40;99.90;;;;;;5086645;28;20656;-75
2021/12/16 11:44:16;;;;;;;6.90;1.73;;;20.40;99.90;;;;;;5083386;28;20205;-75
2021/12/16 11:46:48;;;;;;;5.05;1.60;;;20.40;99.90;;;;;;5087826;28;20275;-75
2021/12/16 11:49:26;;;;;;;6.47;1.88;;;20.40;99.90;;;;;;5086362;28;20197;-75
2021/12/16 11:52:01;;;;;;;8.15;1.92;;;20.40;99.90;;;;;;5094950;28;20188;-74
2021/12/16 11:54:36;;;;;;;6.78;1.90;;;20.40;99.90;;;;;;5086616;28;20189;-75
2021/12/16 11:57:15;;;;;;;7.20;1.90;;;20.40;99.90;;;;;;5088612;28;20600;-75
2021/12/16 11:59:48;;;;;;;7.88;1.73;;;20.40;99.90;;;;;;5082963;28;20203;-75
2021/12/16 12:02:28;;;;;;;11.98;2.00;;;20.40;99.90;;;;;;5083230;28;20246;-75
2021/12/16 12:05:18;;;;;;;11.65;2.28;;;20.40;99.90;;;;;;5087776;28;20199;-74
2021/12/16 12:07:52;;;;;;;10.98;1.98;;;20.50;99.90;;;;;;5085591;28;20192;-75
2021/12/16 12:10:39;;;;;;;12.70;1.85;;;20.50;99.90;;;;;;5091046;28;20204;-76
2021/12/16 12:13:14;;;;;;;8.50;2.05;;;20.40;99.90;;;;;;5088452;28;20220;-76
2021/12/16 12:16:00;;;;;;;7.40;1.77;;;20.50;99.90;;;;;;5078057;28;20204;-75
2021/12/16 12:18:44;;;;;;;12.35;2.15;;;20.50;99.90;;;;;;5094182;28;20588;-75
2021/12/16 12:21:29;;;;;;;8.05;2.10;;;20.40;99.90;;;;;;5087452;28;20249;-75
2021/12/16 12:24:02;;;;;;;11.90;2.05;;;20.50;99.90;;;;;;5085371;28;20266;-75
2021/12/16 12:26:37;;;;;;;8.35;1.70;;;20.50;99.90;;;;;;5085326;28;20528;-79
2021/12/16 12:29:14;;;;;;;12.60;2.20;;;20.50;99.90;;;;;;5076945;28;20191;-76
2021/12/16 12:31:48;;;;;;;9.98;2.03;;;20.40;99.90;;;;;;5083594;28;20188;-75
2021/12/16 12:34:19;;;;;;;7.22;2.15;;;20.40;99.90;;;;;;5087922;28;20230;-75
2021/12/16 12:36:55;;;;;;;9.95;2.22;;;20.40;99.90;;;;;;5087339;28;20558;-76
2021/12/16 12:39:29;;;;;;;11.43;2.38;;;20.40;99.90;;;;;;5085353;28;20279;-75
2021/12/16 12:42:03;;;;;;;12.40;2.10;;;20.40;99.90;;;;;;5086181;28;20210;-76
2021/12/16 12:44:36;;;;;;;11.43;2.13;;;20.50;99.90;;;;;;5087284;28;20213;-76
2021/12/16 12:47:10;;;;;;;12.13;2.28;;;20.40;99.90;;;;;;5089372;28;20196;-75
2021/12/16 12:49:41;;;;;;;14.52;2.30;;;20.30;99.90;;;;;;5082718;28;20189;-76
2021/12/16 12:52:14;;;;;;;10.80;2.15;;;20.20;99.90;;;;;;5093794;28;20192;-76
2021/12/16 12:54:48;;;;;;;11.15;2.33;;;20.10;99.90;;;;;;5086715;28;20262;-76
2021/12/16 12:57:27;;;;;;;9.82;2.17;;;20.00;99.90;;;;;;5092646;28;20211;-76
2021/12/16 13:00:00;;;;;;;8.68;2.10;;;20.00;99.90;;;;;;5090366;28;20189;-76
2021/12/16 13:02:34;;;;;;;8.95;1.90;;;20.00;99.90;;;;;;5082127;28;20243;-76
2021/12/16 13:05:09;;;;;;;9.73;2.13;;;20.00;99.90;;;;;;5086605;28;20707;-76
2021/12/16 13:07:43;;;;;;;10.40;2.13;;;20.00;99.90;;;;;;5092387;28;20191;-76
2021/12/16 13:10:17;;;;;;;13.77;2.22;;;19.90;99.90;;;;;;5086653;28;20655;-77
2021/12/16 13:12:54;;;;;;;9.35;2.28;;;20.00;99.90;;;;;;5086055;28;20694;-76
2021/12/16 13:15:46;;;;;;;10.30;2.50;;;19.90;99.90;;;;;;5088161;28;20644;-76
2021/12/16 13:24:23;;;;;;;8.43;2.00;;;19.80;99.90;;;;;;5093055;28;20682;-76
2021/12/16 13:27:06;;;;;;;11.00;2.10;;;19.80;99.90;;;;;;5090282;28;20219;-76
2021/12/16 13:29:41;;;;;;;10.13;2.08;;;19.80;99.90;;;;;;5077396;28;20564;-76
2021/12/16 13:32:18;;;;;;;9.13;2.10;;;19.80;99.90;;;;;;5080974;28;20183;-76
2021/12/16 13:34:56;;;;;;;12.68;2.22;;;19.80;99.90;;;;;;5080166;28;20250;-76
2021/12/16 13:37:34;;;;;;;11.32;2.42;;;19.80;99.90;;;;;;5080096;28;20203;-76
2021/12/16 13:40:08;;;;;;;11.98;2.20;;;19.80;99.90;;;;;;5091895;28;20192;-76
2021/12/16 13:42:48;;;;;;;10.82;2.30;;;19.80;99.90;;;;;;5092446;28;20187;-76
2021/12/16 13:45:24;;;;;;;10.60;2.30;;;19.80;99.90;;;;;;5081271;28;20220;-76
2021/12/16 13:48:25;;;;;;;11.82;2.33;;;19.80;99.90;;;;;;5081112;28;20188;-76
2021/12/16 14:05:46;;;;;;;10.82;1.90;;;20.00;99.90;;;;;;5084870;28;20726;-76
2021/12/16 14:08:31;;;;;;;7.40;1.60;;;20.00;99.90;;;;;;5074310;28;20288;-76
2021/12/16 14:11:15;;;;;;;9.93;2.05;;;20.00;99.90;;;;;;5088124;28;20188;-76
2021/12/16 14:17:09;;;;;;;10.88;2.20;;;20.10;99.90;;;;;;5044491;28;20228;-76
2021/12/16 14:25:30;;;;;;;11.82;2.15;;;20.10;99.90;;;;;;5090760;28;20330;-76
2021/12/16 14:42:16;;;;;;;13.07;2.10;;;20.10;99.90;;;;;;5091008;28;20196;-76
2021/12/16 14:50:29;;;;;;;10.73;1.98;;;20.10;99.90;;;;;;5084247;28;20188;-76
2021/12/16 14:53:00;;;;;;;10.32;2.53;;;20.10;99.90;;;;;;5095410;28;20644;-76
2021/12/16 14:55:33;;;;;;;9.93;2.08;;;20.10;99.90;;;;;;5077563;28;20196;-74
2021/12/16 14:58:06;;;;;;;15.32;2.40;;;20.10;99.90;;;;;;5080949;28;20633;-75
2021/12/16 15:00:42;;;;;;;8.75;2.15;;;20.10;99.90;;;;;;5087214;28;20604;-75
2021/12/16 15:03:16;;;;;;;11.50;2.25;;;20.10;99.90;;;;;;5084172;28;20291;-75
2021/12/16 15:05:48;;;;;;;10.80;2.50;;;20.10;99.90;;;;;;5084546;28;20192;-75
2021/12/16 15:08:26;;;;;;;11.25;2.30;;;20.00;99.90;;;;;;5084290;28;20208;-75
2021/12/16 15:11:00;;;;;;;10.50;2.28;;;20.00;99.90;;;;;;5087027;28;20195;-75
2021/12/16 15:13:36;;;;;;;11.98;2.50;;;20.00;99.90;;;;;;5090826;28;20230;-75
2021/12/16 15:16:23;;;;;;;12.32;2.47;;;20.00;99.90;;;;;;5094929;28;20200;-75
2021/12/16 15:39:07;;;;;;;8.35;2.03;;;20.00;99.90;;;;;;5060538;28;20229;-75
2021/12/16 15:44:27;;;;;;;14.25;2.38;;;20.00;99.90;;;;;;5083691;28;20577;-75
2021/12/16 15:46:57;;;;;;;14.25;2.28;;;20.00;99.90;;;;;;5082318;28;20188;-75
2021/12/16 15:49:28;;;;;;;14.38;2.40;;;20.00;99.90;;;;;;5092790;28;20597;-75
2021/12/16 15:52:00;;;;;;;11.02;2.20;;;20.00;99.90;;;;;;5086507;28;20189;-75
2021/12/16 15:54:35;;;;;;;14.25;2.20;;;19.90;99.90;;;;;;5092221;28;20254;-75
2021/12/16 15:57:07;;;;;;;12.52;2.25;;;19.90;99.90;;;;;;5082205;28;20632;-75
2021/12/16 16:02:23;;;;;;;12.18;2.13;;;19.90;99.90;;;;;;5081371;28;20660;-75
2021/12/16 16:04:54;;;;;;;12.43;2.42;;;19.90;99.90;;;;;;5093020;28;20219;-75
2021/12/16 16:07:25;;;;;;;11.05;2.28;;;19.90;99.90;;;;;;5091249;28;20195;-75
2021/12/16 16:09:56;;;;;;;9.25;2.20;;;19.90;99.90;;;;;;5094118;28;20188;-75
2021/12/16 16:12:33;;;;;;;11.75;2.38;;;19.90;99.90;;;;;;5089567;28;20220;-76
2021/12/16 16:15:16;;;;;;;11.75;2.55;;;19.90;99.90;;;;;;5089093;28;20601;-75
2021/12/16 16:18:01;;;;;;;9.18;2.30;;;19.90;99.90;;;;;;5089759;28;20199;-75
2021/12/16 16:20:34;;;;;;;11.57;2.25;;;19.90;99.90;;;;;;5084703;28;20199;-75
2021/12/16 16:23:10;;;;;;;10.85;2.40;;;19.90;99.90;;;;;;5093795;28;20196;-75
2021/12/16 16:25:41;;;;;;;11.15;2.38;;;19.90;99.90;;;;;;5089104;28;20185;-75
2021/12/16 16:28:14;;;;;;;13.15;2.33;;;19.90;99.90;;;;;;5082929;28;20196;-75
2021/12/16 16:30:48;;;;;;;12.25;2.28;;;19.90;99.90;;;;;;5085816;28;20189;-75
2021/12/16 16:33:20;;;;;;;11.73;2.38;;;19.80;99.90;;;;;;5082321;28;20192;-75